Orbital elements of FENGYUN 1C DEB
| Launched | 9 May 1999 |
| Flight ended | – |
| Launch site | Taiyuan Space Center, PRC |
| Owner | People's Republic of China |
| NORAD ID | 30142 |
| Date fetched |
Epoch osculation |
Inc. [°] |
Ecc. | RA asc node [hr] |
Arg Peri. [°] |
Mean anom [°] |
Mean motion [rev/day] |
Abs. mag |
| Date fetched |
Epoch osculation |
Inc. [°] |
Ecc. | RA asc node [hr] |
Arg Peri. [°] |
Mean anom [°] |
Mean motion [rev/day] |
Abs. mag |
| 2026 May 09 17:57 | 2026 May 05 12:11:45 | 99.1170 | 0.00999 | 13.9017 | 264.8952 | 94.0807 | 14.11377 | – |
| 2026 May 08 17:57 | 2026 May 05 12:11:45 | 99.1170 | 0.00999 | 13.9017 | 264.8952 | 94.0807 | 14.11377 | – |
| 2026 May 07 17:58 | 2026 May 05 12:11:45 | 99.1170 | 0.00999 | 13.9017 | 264.8952 | 94.0807 | 14.11377 | – |
| 2026 May 06 17:57 | 2026 May 05 12:11:45 | 99.1170 | 0.00999 | 13.9017 | 264.8952 | 94.0807 | 14.11377 | – |
| 2026 May 05 17:57 | 2026 May 05 12:11:45 | 99.1170 | 0.00999 | 13.9017 | 264.8952 | 94.0807 | 14.11377 | – |
| 2026 May 04 17:57 | 2026 Apr 30 11:23:42 | 99.1175 | 0.00995 | 13.5608 | 279.2604 | 94.0807 | 14.11377 | – |
| 2026 May 03 17:57 | 2026 Apr 30 11:23:42 | 99.1175 | 0.00995 | 13.5608 | 279.2604 | 94.0807 | 14.11377 | – |
| 2026 May 02 17:57 | 2026 Apr 30 11:23:42 | 99.1175 | 0.00995 | 13.5608 | 279.2604 | 94.0807 | 14.11377 | – |
| 2026 May 01 17:56 | 2026 Apr 30 11:23:42 | 99.1175 | 0.00995 | 13.5608 | 279.2604 | 94.0807 | 14.11377 | – |
| 2026 Apr 30 17:56 | 2026 Apr 30 11:23:42 | 99.1175 | 0.00995 | 13.5608 | 279.2604 | 94.0807 | 14.11377 | – |
| 2026 Apr 29 17:57 | 2026 Apr 23 10:57:05 | 99.1177 | 0.00991 | 13.0855 | 299.3639 | 94.0807 | 14.11377 | – |
| 2026 Apr 28 17:56 | 2026 Apr 23 10:57:05 | 99.1177 | 0.00991 | 13.0855 | 299.3639 | 94.0807 | 14.11377 | – |
| 2026 Apr 27 17:58 | 2026 Apr 23 10:57:05 | 99.1177 | 0.00991 | 13.0855 | 299.3639 | 94.0807 | 14.11377 | – |
| 2026 Apr 26 17:58 | 2026 Apr 23 10:57:05 | 99.1177 | 0.00991 | 13.0855 | 299.3639 | 94.0807 | 14.11377 | – |
| 2026 Apr 25 17:58 | 2026 Apr 23 10:57:05 | 99.1177 | 0.00991 | 13.0855 | 299.3639 | 94.0807 | 14.11377 | – |
| 2026 Apr 24 17:59 | 2026 Apr 23 10:57:05 | 99.1177 | 0.00991 | 13.0855 | 299.3639 | 94.0807 | 14.11377 | – |
| 2026 Apr 23 17:57 | 2026 Apr 19 04:51:47 | 99.1174 | 0.00990 | 12.7975 | 311.5749 | 94.0807 | 14.11377 | – |
| 2026 Apr 22 17:57 | 2026 Apr 19 04:51:47 | 99.1174 | 0.00990 | 12.7975 | 311.5749 | 94.0807 | 14.11377 | – |
| 2026 Apr 21 17:57 | 2026 Apr 19 04:51:47 | 99.1174 | 0.00990 | 12.7975 | 311.5749 | 94.0807 | 14.11377 | – |
| 2026 Apr 20 17:57 | 2026 Apr 19 04:51:47 | 99.1174 | 0.00990 | 12.7975 | 311.5749 | 94.0807 | 14.11377 | – |
| 2026 Apr 19 17:58 | 2026 Apr 19 04:51:47 | 99.1174 | 0.00990 | 12.7975 | 311.5749 | 94.0807 | 14.11377 | – |
| 2026 Apr 18 17:56 | 2026 Apr 12 16:19:34 | 99.1174 | 0.00990 | 12.3559 | 330.2599 | 94.0807 | 14.11377 | – |
| 2026 Apr 16 17:57 | 2026 Apr 12 16:19:34 | 99.1174 | 0.00990 | 12.3559 | 330.2599 | 94.0807 | 14.11377 | – |
| 2026 Apr 14 17:57 | 2026 Apr 12 16:19:34 | 99.1174 | 0.00990 | 12.3559 | 330.2599 | 94.0807 | 14.11377 | – |
| 2026 Apr 13 17:57 | 2026 Apr 12 16:19:34 | 99.1174 | 0.00990 | 12.3559 | 330.2599 | 94.0807 | 14.11377 | – |
| 2026 Apr 12 17:57 | 2026 Apr 08 15:20:25 | 99.1166 | 0.00991 | 12.0822 | 341.8506 | 94.0807 | 14.11377 | – |